createdAt,value
2024-05-09T00:00:38.921Z,0
2024-05-09T00:01:32.353Z,0
2024-05-09T00:02:32.373Z,0
2024-05-09T00:03:32.391Z,0
2024-05-09T00:04:32.340Z,0
2024-05-09T00:05:32.421Z,0
2024-05-09T00:06:32.302Z,0
2024-05-09T00:07:32.275Z,0
2024-05-09T00:08:32.418Z,0
2024-05-09T00:09:32.280Z,0
2024-05-09T00:10:36.229Z,0
2024-05-09T00:11:32.391Z,0
2024-05-09T00:12:32.289Z,0
2024-05-09T00:13:32.343Z,0
2024-05-09T00:14:32.400Z,0
2024-05-09T00:15:32.308Z,0
2024-05-09T00:16:32.336Z,0
2024-05-09T00:17:32.467Z,0
2024-05-09T00:18:32.420Z,0
2024-05-09T00:19:32.438Z,0
2024-05-09T00:20:37.891Z,0
2024-05-09T00:21:32.406Z,0
2024-05-09T00:22:32.431Z,0
2024-05-09T00:23:32.738Z,0
2024-05-09T00:24:32.370Z,0
2024-05-09T00:25:32.464Z,0
2024-05-09T00:26:32.430Z,0
2024-05-09T00:27:32.385Z,0
2024-05-09T00:28:32.414Z,0
2024-05-09T00:29:32.475Z,0
2024-05-09T00:30:35.447Z,0
2024-05-09T00:31:32.434Z,0
2024-05-09T00:32:32.546Z,0
2024-05-09T00:33:32.425Z,0
2024-05-09T00:34:32.463Z,0
2024-05-09T00:35:32.597Z,0
2024-05-09T00:36:32.441Z,0
2024-05-09T00:37:32.402Z,0
2024-05-09T00:38:32.562Z,0
2024-05-09T00:39:32.406Z,0
2024-05-09T00:40:38.918Z,0
2024-05-09T00:41:32.500Z,0
2024-05-09T00:42:32.379Z,0
2024-05-09T00:43:32.402Z,0
2024-05-09T00:44:32.416Z,0
2024-05-09T00:45:32.429Z,0
2024-05-09T00:46:32.422Z,0
2024-05-09T00:47:32.515Z,0
2024-05-09T00:48:32.630Z,0
2024-05-09T00:49:32.432Z,0
2024-05-09T00:50:36.462Z,0
2024-05-09T00:51:32.483Z,0
2024-05-09T00:52:32.410Z,0
2024-05-09T00:53:32.479Z,0
2024-05-09T00:54:32.446Z,0
2024-05-09T00:55:32.324Z,0
2024-05-09T00:56:32.334Z,0
2024-05-09T00:57:32.321Z,0
2024-05-09T00:58:32.262Z,0
2024-05-09T00:59:32.347Z,0
2024-05-09T01:00:38.642Z,0
2024-05-09T01:01:32.419Z,0
2024-05-09T01:02:32.407Z,0
2024-05-09T01:03:32.608Z,0
2024-05-09T01:04:32.367Z,0
2024-05-09T01:05:32.442Z,0
2024-05-09T01:06:32.278Z,0
2024-05-09T01:07:32.285Z,0
2024-05-09T01:08:32.494Z,0
2024-05-09T01:09:32.383Z,0
2024-05-09T01:10:35.033Z,0
2024-05-09T01:11:32.400Z,0
2024-05-09T01:12:32.390Z,0
2024-05-09T01:13:32.277Z,0
2024-05-09T01:14:32.320Z,0
2024-05-09T01:15:32.280Z,0
2024-05-09T01:16:32.267Z,0
2024-05-09T01:17:32.535Z,0
2024-05-09T01:18:32.466Z,0
2024-05-09T01:19:32.413Z,0
2024-05-09T01:20:40.762Z,0
2024-05-09T01:21:32.288Z,0
2024-05-09T01:22:32.319Z,0
2024-05-09T01:23:32.530Z,0
2024-05-09T01:24:32.284Z,0
2024-05-09T01:25:32.273Z,0
2024-05-09T01:26:32.319Z,0
2024-05-09T01:27:32.282Z,0
2024-05-09T01:28:32.268Z,0
2024-05-09T01:29:32.353Z,0
2024-05-09T01:30:35.628Z,0
2024-05-09T01:31:32.341Z,0
2024-05-09T01:32:32.308Z,0
2024-05-09T01:33:32.820Z,0
2024-05-09T01:34:32.286Z,0
2024-05-09T01:35:32.330Z,0
2024-05-09T01:36:32.325Z,0
2024-05-09T01:37:32.297Z,0
2024-05-09T01:38:32.424Z,0
2024-05-09T01:39:32.330Z,0
2024-05-09T01:40:37.767Z,0
2024-05-09T01:41:32.354Z,0
2024-05-09T01:42:32.304Z,0
2024-05-09T01:43:32.287Z,0
2024-05-09T01:44:32.330Z,0
2024-05-09T01:45:32.379Z,0
2024-05-09T01:46:32.297Z,0
2024-05-09T01:47:32.399Z,0
2024-05-09T01:48:32.355Z,0
2024-05-09T01:49:32.371Z,0
2024-05-09T01:50:38.408Z,0
2024-05-09T01:51:32.294Z,0
2024-05-09T01:52:32.294Z,0
2024-05-09T01:53:32.494Z,0
2024-05-09T01:54:32.252Z,0
2024-05-09T01:55:32.305Z,0
2024-05-09T01:56:32.288Z,0
2024-05-09T01:57:32.293Z,0
2024-05-09T01:58:32.325Z,0
2024-05-09T01:59:32.485Z,0
2024-05-09T02:00:38.914Z,0
2024-05-09T02:01:55.362Z,0
2024-05-09T02:02:32.340Z,0
2024-05-09T02:03:32.375Z,0
2024-05-09T02:04:32.426Z,0
2024-05-09T02:05:32.493Z,0
2024-05-09T02:06:32.328Z,0
2024-05-09T02:07:32.276Z,0
2024-05-09T02:08:32.384Z,0
2024-05-09T02:09:32.255Z,0
2024-05-09T02:10:33.315Z,0
2024-05-09T02:11:32.387Z,0
2024-05-09T02:12:32.364Z,0
2024-05-09T02:13:32.292Z,0
2024-05-09T02:14:32.338Z,0
2024-05-09T02:15:32.444Z,0
2024-05-09T02:16:32.277Z,0
2024-05-09T02:17:32.408Z,0
2024-05-09T02:18:32.345Z,0
2024-05-09T02:19:32.475Z,0
2024-05-09T02:21:32.274Z,0
2024-05-09T02:22:32.296Z,0
2024-05-09T02:23:32.376Z,0
2024-05-09T02:24:32.228Z,0
2024-05-09T02:25:32.508Z,0
2024-05-09T02:26:32.300Z,0
2024-05-09T02:27:32.286Z,0
2024-05-09T02:28:32.318Z,0
2024-05-09T02:29:32.374Z,0
2024-05-09T02:30:39.219Z,0
2024-05-09T02:31:32.285Z,0
2024-05-09T02:32:32.375Z,0
2024-05-09T02:33:32.501Z,0
2024-05-09T02:34:32.323Z,0
2024-05-09T02:35:32.402Z,0
2024-05-09T02:36:32.289Z,0
2024-05-09T02:37:32.262Z,0
2024-05-09T02:38:32.430Z,0
2024-05-09T02:39:32.255Z,0
2024-05-09T02:40:36.462Z,0
2024-05-09T02:41:32.277Z,0
2024-05-09T02:42:32.265Z,0
2024-05-09T02:43:32.314Z,0
2024-05-09T02:44:32.385Z,0
2024-05-09T02:45:32.411Z,0
2024-05-09T02:46:32.297Z,0
2024-05-09T02:47:32.458Z,0
2024-05-09T02:48:32.421Z,0
2024-05-09T02:49:32.344Z,0
2024-05-09T02:50:37.734Z,0
2024-05-09T02:51:32.365Z,0
2024-05-09T02:52:32.275Z,0
2024-05-09T02:53:32.448Z,0
2024-05-09T02:54:32.280Z,0
2024-05-09T02:55:32.439Z,0
2024-05-09T02:56:32.356Z,0
2024-05-09T02:57:32.283Z,0
2024-05-09T02:58:32.252Z,0
2024-05-09T02:59:32.336Z,0
2024-05-09T03:00:38.539Z,0
2024-05-09T03:01:32.276Z,0
2024-05-09T03:02:32.404Z,0
2024-05-09T03:03:32.460Z,0
2024-05-09T03:04:32.490Z,0.36
2024-05-09T03:05:32.460Z,0
2024-05-09T03:06:32.270Z,0
2024-05-09T03:07:32.280Z,0.85
2024-05-09T03:08:32.422Z,0.36
2024-05-09T03:09:32.263Z,0
2024-05-09T03:10:35.816Z,0.85
2024-05-09T03:11:32.366Z,0.85
2024-05-09T03:12:32.364Z,0.85
2024-05-09T03:13:32.267Z,0.36
2024-05-09T03:14:32.281Z,1.22
2024-05-09T03:15:32.246Z,0.85
2024-05-09T03:16:32.465Z,0.36
2024-05-09T03:17:32.488Z,0.85
2024-05-09T03:18:32.385Z,0.85
2024-05-09T03:19:32.280Z,0
2024-05-09T03:20:34.982Z,0.36
2024-05-09T03:21:32.275Z,1.22
2024-05-09T03:22:32.260Z,1.22
2024-05-09T03:23:32.336Z,0.36
2024-05-09T03:24:32.273Z,1.22
2024-05-09T03:25:32.280Z,0.85
2024-05-09T03:26:32.305Z,1.71
2024-05-09T03:27:32.278Z,1.71
2024-05-09T03:28:32.229Z,2.94
2024-05-09T03:29:32.362Z,2.94
2024-05-09T03:30:39.988Z,2.94
2024-05-09T03:31:32.252Z,1.71
2024-05-09T03:32:32.400Z,2.57
2024-05-09T03:33:32.483Z,2.08
2024-05-09T03:34:32.316Z,2.57
2024-05-09T03:35:32.392Z,3.43
2024-05-09T03:36:32.306Z,4.28
2024-05-09T03:37:32.311Z,2.57
2024-05-09T03:38:32.470Z,3.79
2024-05-09T03:39:32.272Z,2.94
2024-05-09T03:40:32.270Z,3.79
2024-05-09T03:41:32.494Z,4.28
2024-05-09T03:42:32.286Z,4.28
2024-05-09T03:43:32.231Z,5.14
2024-05-09T03:44:32.332Z,4.77
2024-05-09T03:45:32.255Z,4.77
2024-05-09T03:46:32.270Z,5.63
2024-05-09T03:47:32.491Z,5.63
2024-05-09T03:48:32.315Z,6.48
2024-05-09T03:49:32.367Z,5.99
2024-05-09T03:50:35.663Z,6.85
2024-05-09T03:51:32.268Z,7.7
2024-05-09T03:52:32.257Z,7.7
2024-05-09T03:53:32.430Z,8.19
2024-05-09T03:54:32.262Z,8.56
2024-05-09T03:55:32.356Z,8.56
2024-05-09T03:56:32.379Z,9.54
2024-05-09T03:57:32.292Z,7.7
2024-05-09T03:58:32.247Z,7.7
2024-05-09T03:59:32.496Z,6.85
2024-05-09T04:00:38.035Z,5.99
2024-05-09T04:01:32.424Z,5.99
2024-05-09T04:02:32.307Z,6.48
2024-05-09T04:03:32.458Z,6.85
2024-05-09T04:04:32.447Z,7.7
2024-05-09T04:05:32.322Z,7.34
2024-05-09T04:06:32.242Z,6.85
2024-05-09T04:07:32.289Z,6.85
2024-05-09T04:08:32.250Z,6.85
2024-05-09T04:09:32.255Z,6.48
2024-05-09T04:10:34.131Z,7.34
2024-05-09T04:11:32.431Z,8.19
2024-05-09T04:12:32.362Z,8.19
2024-05-09T04:13:32.291Z,6.85
2024-05-09T04:14:32.335Z,5.99
2024-05-09T04:15:32.645Z,5.63
2024-05-09T04:16:32.282Z,7.34
2024-05-09T04:17:32.449Z,7.7
2024-05-09T04:18:32.429Z,8.19
2024-05-09T04:19:32.468Z,7.7
2024-05-09T04:20:38.107Z,8.56
2024-05-09T04:21:32.217Z,9.91
2024-05-09T04:22:32.243Z,12.11
2024-05-09T04:23:32.285Z,15.17
2024-05-09T04:24:32.282Z,14.68
2024-05-09T04:25:32.366Z,15.17
2024-05-09T04:26:32.436Z,15.17
2024-05-09T04:27:32.279Z,12.11
2024-05-09T04:28:32.293Z,12.11
2024-05-09T04:29:32.409Z,11.62
2024-05-09T04:30:37.818Z,11.62
2024-05-09T04:31:32.253Z,12.97
2024-05-09T04:32:32.373Z,14.68
2024-05-09T04:33:32.535Z,15.53
2024-05-09T04:34:32.426Z,15.17
2024-05-09T04:35:32.536Z,14.68
2024-05-09T04:36:32.229Z,16.39
2024-05-09T04:37:32.288Z,17.25
2024-05-09T04:38:32.386Z,18.11
2024-05-09T04:39:32.253Z,19.08
2024-05-09T04:40:35.401Z,20.31
2024-05-09T04:41:32.358Z,22.02
2024-05-09T04:42:32.258Z,22.02
2024-05-09T04:43:32.244Z,23.36
2024-05-09T04:44:32.329Z,22.87
2024-05-09T04:45:32.343Z,24.22
2024-05-09T04:46:32.249Z,25.56
2024-05-09T04:47:32.370Z,25.56
2024-05-09T04:48:32.504Z,24.22
2024-05-09T04:49:32.419Z,22.51
2024-05-09T04:50:37.159Z,21.65
2024-05-09T04:51:32.254Z,19.94
2024-05-09T04:52:32.287Z,19.45
2024-05-09T04:53:32.289Z,20.8
2024-05-09T04:54:36.396Z,21.16
2024-05-09T04:55:32.244Z,23.36
2024-05-09T04:56:32.375Z,24.71
2024-05-09T04:57:32.289Z,24.71
2024-05-09T04:58:32.257Z,25.07
2024-05-09T04:59:32.387Z,25.07
2024-05-09T05:00:36.601Z,26.79
2024-05-09T05:01:32.271Z,28.14
2024-05-09T05:02:32.402Z,27.28
2024-05-09T05:03:32.622Z,19.94
2024-05-09T05:04:32.241Z,20.31
2024-05-09T05:05:32.296Z,19.94
2024-05-09T05:06:32.248Z,22.02
2024-05-09T05:07:32.275Z,28.14
2024-05-09T05:08:32.289Z,27.28
2024-05-09T05:09:32.292Z,27.28
2024-05-09T05:10:36.167Z,26.79
2024-05-09T05:11:32.342Z,28.63
2024-05-09T05:12:32.383Z,30.34
2024-05-09T05:13:32.262Z,35.11
2024-05-09T05:14:32.329Z,36.33
2024-05-09T05:15:32.270Z,35.97
2024-05-09T05:16:32.278Z,36.82
2024-05-09T05:17:32.542Z,39.88
2024-05-09T05:18:32.369Z,41.59
2024-05-09T05:19:32.388Z,44.16
2024-05-09T05:20:33.929Z,45.02
2024-05-09T05:21:32.327Z,43.8
2024-05-09T05:22:32.250Z,41.59
2024-05-09T05:23:32.394Z,41.96
2024-05-09T05:24:32.312Z,41.1
2024-05-09T05:25:32.271Z,36.33
2024-05-09T05:26:32.400Z,32.42
2024-05-09T05:27:32.334Z,36.33
2024-05-09T05:28:32.251Z,34.62
2024-05-09T05:29:32.305Z,31.56
2024-05-09T05:30:34.747Z,32.42
2024-05-09T05:31:32.305Z,31.19
2024-05-09T05:32:32.395Z,27.65
2024-05-09T05:33:32.421Z,29.85
2024-05-09T05:34:32.245Z,31.56
2024-05-09T05:35:32.468Z,32.05
2024-05-09T05:36:32.275Z,29.85
2024-05-09T05:37:32.307Z,27.28
2024-05-09T05:38:32.322Z,31.19
2024-05-09T05:39:32.248Z,36.33
2024-05-09T05:40:36.123Z,39.39
2024-05-09T05:41:32.294Z,36.33
2024-05-09T05:42:32.218Z,34.62
2024-05-09T05:43:32.336Z,33.76
2024-05-09T05:44:32.275Z,35.97
2024-05-09T05:45:32.263Z,38.17
2024-05-09T05:46:32.228Z,40.73
2024-05-09T05:47:32.407Z,43.8
2024-05-09T05:48:32.303Z,42.94
2024-05-09T05:49:32.356Z,41.59
2024-05-09T05:50:36.193Z,40.73
2024-05-09T05:51:32.257Z,36.82
2024-05-09T05:52:32.270Z,35.48
2024-05-09T05:53:32.310Z,37.19
2024-05-09T05:54:32.239Z,37.19
2024-05-09T05:55:32.269Z,36.82
2024-05-09T05:56:32.408Z,37.68
2024-05-09T05:57:32.241Z,36.82
2024-05-09T05:58:32.229Z,35.48
2024-05-09T05:59:32.340Z,35.97
2024-05-09T06:00:37.992Z,32.9
2024-05-09T06:01:32.319Z,30.7
2024-05-09T06:02:32.479Z,30.7
2024-05-09T06:03:32.398Z,27.65
2024-05-09T06:04:32.286Z,27.28
2024-05-09T06:05:32.829Z,29.85
2024-05-09T06:06:32.209Z,32.9
2024-05-09T06:07:32.270Z,30.7
2024-05-09T06:08:32.259Z,27.28
2024-05-09T06:09:32.243Z,25.94
2024-05-09T06:10:37.854Z,26.79
2024-05-09T06:11:32.463Z,29.85
2024-05-09T06:12:32.268Z,31.56
2024-05-09T06:13:32.267Z,32.9
2024-05-09T06:14:32.426Z,34.62
2024-05-09T06:15:32.271Z,35.11
2024-05-09T06:16:32.208Z,37.68
2024-05-09T06:17:32.357Z,38.53
2024-05-09T06:18:32.505Z,39.02
2024-05-09T06:19:32.430Z,43.31
2024-05-09T06:20:36.341Z,46.73
2024-05-09T06:21:32.221Z,48.07
2024-05-09T06:22:32.284Z,50.28
2024-05-09T06:23:32.558Z,52.48
2024-05-09T06:24:32.315Z,53.7
2024-05-09T06:25:32.429Z,52.85
2024-05-09T06:26:32.348Z,53.7
2024-05-09T06:27:32.246Z,51.99
2024-05-09T06:28:32.245Z,50.28
2024-05-09T06:29:32.292Z,48.07
2024-05-09T06:30:38.407Z,45.87
2024-05-09T06:31:32.214Z,43.8
2024-05-09T06:32:32.338Z,44.65
2024-05-09T06:33:32.559Z,44.16
2024-05-09T06:34:32.409Z,43.8
2024-05-09T06:35:32.354Z,44.16
2024-05-09T06:36:32.258Z,43.31
2024-05-09T06:37:32.270Z,43.31
2024-05-09T06:38:32.297Z,43.8
2024-05-09T06:39:32.228Z,42.45
2024-05-09T06:40:37.902Z,42.45
2024-05-09T06:41:32.340Z,41.96
2024-05-09T06:42:32.277Z,41.59
2024-05-09T06:43:32.220Z,39.88
2024-05-09T06:44:32.270Z,40.73
2024-05-09T06:45:32.259Z,40.24
2024-05-09T06:46:32.282Z,40.73
2024-05-09T06:47:32.432Z,39.39
2024-05-09T06:48:32.403Z,39.02
2024-05-09T06:49:32.341Z,37.68
2024-05-09T06:50:37.489Z,38.17
2024-05-09T06:51:32.228Z,38.17
2024-05-09T06:52:32.232Z,39.39
2024-05-09T06:53:32.388Z,41.1
2024-05-09T06:54:32.238Z,40.73
2024-05-09T06:55:32.241Z,42.45
2024-05-09T06:56:32.323Z,41.1
2024-05-09T06:57:32.247Z,43.31
2024-05-09T06:58:32.222Z,43.8
2024-05-09T06:59:32.306Z,45.02
2024-05-09T07:00:38.772Z,45.87
2024-05-09T07:01:32.371Z,46.73
2024-05-09T07:02:32.337Z,48.07
2024-05-09T07:03:32.329Z,48.93
2024-05-09T07:04:32.523Z,51.14
2024-05-09T07:05:32.254Z,51.99
2024-05-09T07:06:32.225Z,52.48
2024-05-09T07:07:32.325Z,49.42
2024-05-09T07:08:32.395Z,47.22
2024-05-09T07:09:32.239Z,45.87
2024-05-09T07:10:35.296Z,46.36
2024-05-09T07:11:32.418Z,48.07
2024-05-09T07:12:32.323Z,50.28
2024-05-09T07:13:32.240Z,51.5
2024-05-09T07:14:33.830Z,52.85
2024-05-09T07:15:32.202Z,54.19
2024-05-09T07:16:32.230Z,53.7
2024-05-09T07:17:32.366Z,55.41
2024-05-09T07:18:32.429Z,56.27
2024-05-09T07:19:32.384Z,55.9
2024-05-09T07:20:34.888Z,55.41
2024-05-09T07:21:32.228Z,55.41
2024-05-09T07:22:32.302Z,55.9
2024-05-09T07:23:32.263Z,58.48
2024-05-09T07:24:32.247Z,61.17
2024-05-09T07:25:32.417Z,60.68
2024-05-09T07:26:32.281Z,62.02
2024-05-09T07:27:32.230Z,63.73
2024-05-09T07:28:32.271Z,67.16
2024-05-09T07:29:34.042Z,70.71
2024-05-09T07:30:34.468Z,73.28
2024-05-09T07:31:32.211Z,75.85
2024-05-09T07:32:32.387Z,78.05
2024-05-09T07:33:32.281Z,78.41
2024-05-09T07:34:32.310Z,81.1
2024-05-09T07:35:32.524Z,84.04
2024-05-09T07:36:32.275Z,88.45
2024-05-09T07:37:32.231Z,91.87
2024-05-09T07:38:32.255Z,97.5
2024-05-09T07:39:32.308Z,107.9
2024-05-09T07:40:36.170Z,115.36
2024-05-09T07:41:32.520Z,116.22
2024-05-09T07:42:32.244Z,114.87
2024-05-09T07:43:32.204Z,110.96
2024-05-09T07:44:32.302Z,110.96
2024-05-09T07:45:47.586Z,118.42
2024-05-09T07:48:57.502Z,127.47
2024-05-09T07:52:22.928Z,149.98
2024-05-09T07:53:08.687Z,153.9
2024-05-09T07:53:32.277Z,141.78
2024-05-09T07:53:40.748Z,128.33
2024-05-09T07:54:32.547Z,116.58
2024-05-09T07:55:32.471Z,111.82
2024-05-09T07:56:32.420Z,110.59
2024-05-09T07:57:32.379Z,107.04
2024-05-09T07:58:32.249Z,106.68
2024-05-09T07:59:35.073Z,106.68
2024-05-09T08:00:32.379Z,102.76
2024-05-09T08:01:32.299Z,95.79
2024-05-09T08:02:32.382Z,96.65
2024-05-09T08:03:32.427Z,98.36
2024-05-09T08:04:32.335Z,103.61
2024-05-09T08:05:32.400Z,109.24
2024-05-09T08:06:32.226Z,111.82
2024-05-09T08:07:32.248Z,114.87
2024-05-09T08:08:32.242Z,127.1
2024-05-09T08:09:32.312Z,146.19
2024-05-09T08:10:32.356Z,210.29
2024-05-09T08:11:32.328Z,161.73
2024-05-09T08:12:32.264Z,153.9
2024-05-09T08:13:32.168Z,159.16
2024-05-09T08:14:32.237Z,153.9
2024-05-09T08:15:32.296Z,220.69
2024-05-09T08:16:32.266Z,149.61
2024-05-09T08:17:32.410Z,120.99
2024-05-09T08:18:32.515Z,115.73
2024-05-09T08:19:32.348Z,121.85
2024-05-09T08:20:35.247Z,124.9
2024-05-09T08:21:32.298Z,120.5
2024-05-09T08:22:32.275Z,124.05
2024-05-09T08:23:32.207Z,133.59
2024-05-09T08:24:32.298Z,173.84
2024-05-09T08:25:32.220Z,198.67
2024-05-09T08:26:32.224Z,240.76
2024-05-09T08:27:32.250Z,194.27
2024-05-09T08:28:32.186Z,162.22
2024-05-09T08:29:32.224Z,158.67
2024-05-09T08:30:36.863Z,159.16
2024-05-09T08:31:32.293Z,156.59
2024-05-09T08:32:32.378Z,133.95
2024-05-09T08:33:32.348Z,125.76
2024-05-09T08:34:32.349Z,118.78
2024-05-09T08:35:32.302Z,110.59
2024-05-09T08:36:32.324Z,107.9
2024-05-09T08:37:36.698Z,106.68
2024-05-09T08:38:32.209Z,104.96
2024-05-09T08:39:32.266Z,101.9
2024-05-09T08:40:35.454Z,110.59
2024-05-09T08:41:32.322Z,111.44
2024-05-09T08:42:32.327Z,116.22
2024-05-09T08:43:32.308Z,122.7
2024-05-09T08:44:32.177Z,125.27
2024-05-09T08:45:32.276Z,127.1
2024-05-09T08:46:32.210Z,129.19
2024-05-09T08:47:32.507Z,137.87
2024-05-09T08:48:32.362Z,138.36
2024-05-09T08:49:32.339Z,144.36
2024-05-09T08:50:38.399Z,143.99
2024-05-09T08:51:32.230Z,144.85
2024-05-09T08:52:32.212Z,139.22
2024-05-09T08:53:32.223Z,137.51
2024-05-09T08:54:32.308Z,136.16
2024-05-09T08:55:32.283Z,139.58
2024-05-09T08:56:32.260Z,140.44
2024-05-09T08:57:32.265Z,138.36
2024-05-09T08:58:32.222Z,141.78
2024-05-09T08:59:32.255Z,137.51
2024-05-09T09:00:36.924Z,136.16
2024-05-09T09:01:32.343Z,132.73
2024-05-09T09:02:32.380Z,137.02
2024-05-09T09:03:32.588Z,138.36
2024-05-09T09:04:32.308Z,132.24
2024-05-09T09:05:32.519Z,128.82
2024-05-09T09:06:32.279Z,134.44
2024-05-09T09:07:32.261Z,134.81
2024-05-09T09:08:32.223Z,135.67
2024-05-09T09:09:32.258Z,137.51
2024-05-09T09:10:33.243Z,133.59
2024-05-09T09:11:32.292Z,125.27
2024-05-09T09:12:32.358Z,110.1
2024-05-09T09:13:32.279Z,104.96
2024-05-09T09:14:32.239Z,104.96
2024-05-09T09:15:33.256Z,104.96
2024-05-09T09:16:32.314Z,111.82
2024-05-09T09:17:32.324Z,109.73
2024-05-09T09:18:32.482Z,109.73
2024-05-09T09:19:32.245Z,111.82
2024-05-09T09:20:36.486Z,111.82
2024-05-09T09:21:32.315Z,115.73
2024-05-09T09:22:32.234Z,114.87
2024-05-09T09:23:32.264Z,113.16
2024-05-09T09:24:32.266Z,113.16
2024-05-09T09:25:32.360Z,109.24
2024-05-09T09:26:32.241Z,104.96
2024-05-09T09:27:32.212Z,104.48
2024-05-09T09:28:32.144Z,104.1
2024-05-09T09:29:32.209Z,104.48
2024-05-09T09:30:36.993Z,108.39
2024-05-09T09:31:32.304Z,113.16
2024-05-09T09:32:32.408Z,121.36
2024-05-09T09:33:32.890Z,130.04
2024-05-09T09:34:32.584Z,133.95
2024-05-09T09:35:32.322Z,135.3
2024-05-09T09:36:32.208Z,132.73
2024-05-09T09:37:32.257Z,125.27
2024-05-09T09:38:32.205Z,117.44
2024-05-09T09:39:32.318Z,105.82
2024-05-09T09:40:34.797Z,99.34
2024-05-09T09:41:32.210Z,96.65
2024-05-09T09:42:32.270Z,96.27
2024-05-09T09:43:32.234Z,97.13
2024-05-09T09:44:33.020Z,99.7
2024-05-09T09:45:32.225Z,97.5
2024-05-09T09:46:32.249Z,94.56
2024-05-09T09:47:32.421Z,89.79
2024-05-09T09:48:32.418Z,88.45
2024-05-09T09:49:32.259Z,88.45
2024-05-09T09:50:34.915Z,91.02
2024-05-09T09:51:32.281Z,93.58
2024-05-09T09:52:32.350Z,92.73
2024-05-09T09:53:32.191Z,91.02
2024-05-09T09:54:32.356Z,88.82
2024-05-09T09:55:32.210Z,86.24
2024-05-09T09:56:32.224Z,86.73
2024-05-09T09:57:32.259Z,85.88
2024-05-09T09:58:32.263Z,87.59
2024-05-09T09:59:32.178Z,86.24
2024-05-09T10:00:33.497Z,86.24
2024-05-09T10:01:32.323Z,90.16
2024-05-09T10:02:32.414Z,91.87
2024-05-09T10:03:32.460Z,91.87
2024-05-09T10:04:32.424Z,90.65
2024-05-09T10:05:32.399Z,89.31
2024-05-09T10:06:32.262Z,88.45
2024-05-09T10:07:32.244Z,88.82
2024-05-09T10:08:32.241Z,88.82
2024-05-09T10:09:32.269Z,85.02
2024-05-09T10:10:33.272Z,81.1
2024-05-09T10:11:34.909Z,74.99
2024-05-09T10:12:32.240Z,71.93
2024-05-09T10:13:32.264Z,72.42
2024-05-09T10:14:32.229Z,71.93
2024-05-09T10:15:32.324Z,74.14
2024-05-09T10:16:32.277Z,74.14
2024-05-09T10:17:32.364Z,72.79
2024-05-09T10:18:34.299Z,73.28
2024-05-09T10:19:32.306Z,71.56
2024-05-09T10:20:32.972Z,68.02
2024-05-09T10:21:32.217Z,67.65
2024-05-09T10:22:32.234Z,68.51
2024-05-09T10:23:32.434Z,68.02
2024-05-09T10:24:32.287Z,68.02
2024-05-09T10:25:32.300Z,68.02
2024-05-09T10:26:32.223Z,68.51
2024-05-09T10:27:32.251Z,71.93
2024-05-09T10:28:32.218Z,73.28
2024-05-09T10:29:32.189Z,72.79
2024-05-09T10:30:36.117Z,70.71
2024-05-09T10:31:32.305Z,68.02
2024-05-09T10:32:32.265Z,64.96
2024-05-09T10:33:32.364Z,64.1
2024-05-09T10:34:32.353Z,63.73
2024-05-09T10:35:32.225Z,68.02
2024-05-09T10:36:32.230Z,69.73
2024-05-09T10:37:32.250Z,70.22
2024-05-09T10:38:32.266Z,69.73
2024-05-09T10:39:32.199Z,69.36
2024-05-09T10:40:32.397Z,72.79
2024-05-09T10:41:32.262Z,77.56
2024-05-09T10:42:32.225Z,81.97
2024-05-09T10:43:32.205Z,86.24
2024-05-09T10:44:32.233Z,80.62
2024-05-09T10:45:32.254Z,84.04
2024-05-09T10:46:32.200Z,85.39
2024-05-09T10:47:32.295Z,79.76
2024-05-09T10:48:32.354Z,87.96
2024-05-09T10:49:32.239Z,86.73
2024-05-09T10:50:34.411Z,86.24
2024-05-09T10:51:32.265Z,89.31
2024-05-09T10:52:32.178Z,92.36
2024-05-09T10:53:32.228Z,92.36
2024-05-09T10:54:32.268Z,91.87
2024-05-09T10:55:32.227Z,92.73
2024-05-09T10:56:32.194Z,94.93
2024-05-09T10:57:32.284Z,98.36
2024-05-09T10:58:32.225Z,96.65
2024-05-09T10:59:32.234Z,97.5
2024-05-09T11:00:35.887Z,95.42
2024-05-09T11:01:32.414Z,93.58
2024-05-09T11:02:32.438Z,93.58
2024-05-09T11:03:32.428Z,91.02
2024-05-09T11:04:32.285Z,92.36
2024-05-09T11:05:32.302Z,93.22
2024-05-09T11:06:32.235Z,94.07
2024-05-09T11:07:32.284Z,91.02
2024-05-09T11:08:32.387Z,90.65
2024-05-09T11:09:32.268Z,91.51
2024-05-09T11:10:34.347Z,94.93
2024-05-09T11:11:32.209Z,100.56
2024-05-09T11:12:32.299Z,98.36
2024-05-09T11:13:32.368Z,93.58
2024-05-09T11:14:32.241Z,90.16
2024-05-09T11:15:32.242Z,87.96
2024-05-09T11:16:32.225Z,91.87
2024-05-09T11:17:32.293Z,97.5
2024-05-09T11:18:36.181Z,97.13
2024-05-09T11:19:32.272Z,87.1
2024-05-09T11:20:35.030Z,77.56
2024-05-09T11:21:32.286Z,73.65
2024-05-09T11:22:32.200Z,75.48
2024-05-09T11:23:32.237Z,64.96
2024-05-09T11:24:32.221Z,64.59
2024-05-09T11:25:32.238Z,64.59
2024-05-09T11:26:32.234Z,62.02
2024-05-09T11:27:32.240Z,54.56
2024-05-09T11:28:32.207Z,50.28
2024-05-09T11:29:32.203Z,49.79
2024-05-09T11:30:32.779Z,50.65
2024-05-09T11:31:32.368Z,58.97
2024-05-09T11:32:32.340Z,54.56
2024-05-09T11:33:32.359Z,59.33
2024-05-09T11:34:32.344Z,70.22
2024-05-09T11:35:32.191Z,81.97
2024-05-09T11:36:32.329Z,79.27
2024-05-09T11:37:34.670Z,67.65
2024-05-09T11:38:32.205Z,58.11
2024-05-09T11:39:32.313Z,51.99
2024-05-09T11:40:34.501Z,54.19
2024-05-09T11:41:32.172Z,57.62
2024-05-09T11:42:32.256Z,58.48
2024-05-09T11:43:32.359Z,62.02
2024-05-09T11:44:32.177Z,65.45
2024-05-09T11:45:32.264Z,67.65
2024-05-09T11:46:32.223Z,86.73
2024-05-09T11:47:32.334Z,104.48
2024-05-09T11:48:32.696Z,129.19
2024-05-09T11:49:32.291Z,132.73
2024-05-09T11:50:35.582Z,128.82
2024-05-09T11:51:32.279Z,119.64
2024-05-09T11:52:32.273Z,117.07
2024-05-09T11:53:32.218Z,120.13
2024-05-09T11:54:32.223Z,119.27
2024-05-09T11:55:32.228Z,120.99
2024-05-09T11:56:32.181Z,117.07
2024-05-09T11:57:32.300Z,120.13
2024-05-09T11:58:32.195Z,128.82
2024-05-09T11:59:32.245Z,134.81
2024-05-09T12:00:36.754Z,130.9
2024-05-09T12:01:32.445Z,119.64
2024-05-09T12:02:32.331Z,110.96
2024-05-09T12:03:32.589Z,118.42
2024-05-09T12:04:32.425Z,122.34
2024-05-09T12:05:32.548Z,112.3
2024-05-09T12:06:32.261Z,105.33
2024-05-09T12:07:32.272Z,98.85
2024-05-09T12:08:32.194Z,95.42
2024-05-09T12:09:32.363Z,90.16
2024-05-09T12:10:34.800Z,87.1
2024-05-09T12:11:32.438Z,90.16
2024-05-09T12:12:33.477Z,93.58
2024-05-09T12:13:32.305Z,104.48
2024-05-09T12:14:33.462Z,111.82
2024-05-09T12:15:32.385Z,131.39
2024-05-09T12:16:32.495Z,166.13
2024-05-09T12:17:32.275Z,147.05
2024-05-09T12:18:32.339Z,138.36
2024-05-09T12:19:32.263Z,128.82
2024-05-09T12:20:37.242Z,111.82
2024-05-09T12:21:32.221Z,99.7
2024-05-09T12:22:32.203Z,94.93
2024-05-09T12:23:32.238Z,86.24
2024-05-09T12:24:32.197Z,77.56
2024-05-09T12:25:32.287Z,66.8
2024-05-09T12:26:32.199Z,62.88
2024-05-09T12:27:32.306Z,63.24
2024-05-09T12:28:32.195Z,64.1
2024-05-09T12:29:33.316Z,62.02
2024-05-09T12:30:37.312Z,59.33
2024-05-09T12:31:32.377Z,58.48
2024-05-09T12:32:32.249Z,58.11
2024-05-09T12:33:32.392Z,55.05
2024-05-09T12:34:32.339Z,52.85
2024-05-09T12:35:32.211Z,50.65
2024-05-09T12:36:32.233Z,47.71
2024-05-09T12:37:32.197Z,45.87
2024-05-09T12:38:32.230Z,47.22
2024-05-09T12:39:32.203Z,46.73
2024-05-09T12:40:36.780Z,44.65
2024-05-09T12:41:32.253Z,42.94
2024-05-09T12:42:33.749Z,42.45
2024-05-09T12:43:32.250Z,46.36
2024-05-09T12:44:32.213Z,52.85
2024-05-09T12:45:32.475Z,53.34
2024-05-09T12:46:32.244Z,48.56
2024-05-09T12:47:32.259Z,43.31
2024-05-09T12:48:32.358Z,42.45
2024-05-09T12:49:32.354Z,46.36
2024-05-09T12:50:34.225Z,47.71
2024-05-09T12:51:32.309Z,45.51
2024-05-09T12:52:32.213Z,40.24
2024-05-09T12:53:32.228Z,35.48
2024-05-09T12:54:32.257Z,34.25
2024-05-09T12:55:40.173Z,35.48
2024-05-09T12:56:32.209Z,38.17
2024-05-09T12:57:32.289Z,38.17
2024-05-09T12:58:32.192Z,38.53
2024-05-09T12:59:32.231Z,34.25
2024-05-09T13:01:32.369Z,35.97
2024-05-09T13:02:32.384Z,37.68
2024-05-09T13:03:32.418Z,36.82
2024-05-09T13:04:32.341Z,37.19
2024-05-09T13:05:32.526Z,36.82
2024-05-09T13:06:32.287Z,40.73
2024-05-09T13:07:32.146Z,39.02
2024-05-09T13:08:32.135Z,35.48
2024-05-09T13:09:32.420Z,36.82
2024-05-09T13:10:33.444Z,45.51
2024-05-09T13:11:32.269Z,54.56
2024-05-09T13:12:32.269Z,61.17
2024-05-09T13:13:32.200Z,58.97
2024-05-09T13:14:32.162Z,58.97
2024-05-09T13:15:32.208Z,59.82
2024-05-09T13:16:32.340Z,57.25
2024-05-09T13:17:32.371Z,54.19
2024-05-09T13:18:32.242Z,54.56
2024-05-09T13:19:32.266Z,58.48
2024-05-09T13:20:34.560Z,64.59
2024-05-09T13:21:32.277Z,64.59